Time;durP1;ratioP1;P1;durP2;ratioP2;P2;SDS_P1;SDS_P2;PMS_P1;PMS_P2;Temp;Humidity;BMP_temperature;BMP_pressure;BME280_temperature;BME280_humidity;BME280_pressure;Samples;Min_cycle;Max_cycle;Signal;HPM_P1;HPM_P2
2022/01/15 00:00:38;;;;;;;3.10;0.88;;;6.20;99.90;;;;;;5050854;28;20438;-83
2022/01/15 00:03:06;;;;;;;2.70;0.88;;;6.50;99.90;;;;;;5052039;28;20049;-83
2022/01/15 00:05:32;;;;;;;2.28;0.77;;;6.50;99.90;;;;;;5034387;28;20040;-84
2022/01/15 00:07:59;;;;;;;2.92;0.80;;;5.70;99.90;;;;;;5052474;28;20045;-84
2022/01/15 00:10:27;;;;;;;1.73;0.80;;;6.90;99.90;;;;;;5050691;28;20131;-84
2022/01/15 00:12:56;;;;;;;1.38;0.70;;;6.80;99.90;;;;;;5051414;28;20090;-84
2022/01/15 00:15:27;;;;;;;1.52;0.70;;;6.20;99.90;;;;;;5052507;28;20060;-84
2022/01/15 00:17:59;;;;;;;1.85;0.50;;;6.10;99.90;;;;;;5050028;28;20068;-84
2022/01/15 00:20:26;;;;;;;1.25;0.50;;;6.10;99.90;;;;;;5052565;28;20210;-84
2022/01/15 00:22:54;;;;;;;1.67;0.73;;;6.50;99.90;;;;;;5050254;28;20045;-84
2022/01/15 00:25:22;;;;;;;1.83;0.70;;;6.40;99.90;;;;;;5034173;28;20111;-84
2022/01/15 00:27:49;;;;;;;1.58;0.60;;;6.10;99.90;;;;;;5045516;28;20080;-83
2022/01/15 00:30:15;;;;;;;1.25;0.50;;;6.70;99.90;;;;;;5032381;28;20556;-84
2022/01/15 00:32:41;;;;;;;1.80;0.43;;;6.10;99.90;;;;;;5034149;28;20046;-83
2022/01/15 00:35:10;;;;;;;0.73;0.40;;;6.30;99.90;;;;;;5032371;28;20112;-84
2022/01/15 00:37:36;;;;;;;0.70;0.40;;;6.00;99.90;;;;;;5014924;28;20049;-82
2022/01/15 00:40:06;;;;;;;0.60;0.30;;;6.00;99.90;;;;;;5014829;28;20058;-81
2022/01/15 00:42:33;;;;;;;0.47;0.28;;;6.00;99.90;;;;;;5033305;28;20045;-81
2022/01/15 00:45:01;;;;;;;0.70;0.20;;;6.00;99.90;;;;;;5032479;28;20046;-81
2022/01/15 00:47:31;;;;;;;0.47;0.30;;;6.30;99.90;;;;;;5044276;28;20044;-81
2022/01/15 00:49:58;;;;;;;0.47;0.20;;;5.80;99.90;;;;;;5052198;28;20037;-82
2022/01/15 00:52:24;;;;;;;0.30;0.25;;;5.80;99.90;;;;;;5052184;28;20037;-82
2022/01/15 00:54:50;;;;;;;0.30;0.30;;;5.70;99.90;;;;;;5032700;28;20135;-81
2022/01/15 00:57:15;;;;;;;0.20;0.20;;;6.30;99.90;;;;;;5034465;28;20049;-81
2022/01/15 00:59:41;;;;;;;0.35;0.20;;;6.40;99.90;;;;;;5052064;28;20040;-81
2022/01/15 01:02:07;;;;;;;0.25;0.20;;;6.80;99.90;;;;;;5011403;28;20048;-81
2022/01/15 01:04:32;;;;;;;0.25;0.10;;;6.50;99.90;;;;;;5032148;28;20045;-81
2022/01/15 01:06:58;;;;;;;0.25;0.22;;;5.90;99.90;;;;;;5032374;28;20045;-81
2022/01/15 01:09:38;;;;;;;0.30;0.20;;;5.70;99.90;;;;;;5035884;28;20382;-82
2022/01/15 01:12:21;;;;;;;0.32;0.20;;;5.80;99.90;;;;;;5019116;28;20047;-81
2022/01/15 01:20:23;;;;;;;0.38;0.20;;;5.60;99.90;;;;;;5039910;28;20049;-81
2022/01/15 01:22:57;;;;;;;0.30;0.10;;;5.60;99.90;;;;;;5053783;28;20124;-82
2022/01/15 01:25:28;;;;;;;0.13;0.10;;;5.60;99.90;;;;;;5055106;28;20049;-81
2022/01/15 01:28:02;;;;;;;0.10;0.10;;;5.80;99.90;;;;;;5055550;28;20045;-81
2022/01/15 01:30:34;;;;;;;0.20;0.10;;;5.60;99.90;;;;;;5055382;28;20041;-82
2022/01/15 01:33:17;;;;;;;0.10;0.10;;;6.40;99.90;;;;;;5054278;28;20191;-84
2022/01/15 01:35:47;;;;;;;0.32;0.20;;;5.50;99.90;;;;;;5044851;28;20048;-83
2022/01/15 01:38:39;;;;;;;0.20;0.20;;;5.60;99.90;;;;;;5055041;28;20501;-84
2022/01/15 01:41:00;;;;;;;0.35;0.20;;;5.60;99.90;;;;;;5054802;28;20074;-83
2022/01/15 01:46:17;;;;;;;0.22;0.20;;;6.40;99.90;;;;;;5053548;28;20505;-84
2022/01/15 01:48:44;;;;;;;0.38;0.28;;;5.60;99.90;;;;;;5037364;28;20053;-84
2022/01/15 01:51:33;;;;;;;0.38;0.28;;;5.50;99.90;;;;;;5022791;28;20430;-84
2022/01/15 01:54:03;;;;;;;0.30;0.20;;;5.60;99.90;;;;;;5021635;28;20048;-84
2022/01/15 01:56:30;;;;;;;0.20;0.20;;;5.50;99.90;;;;;;5053245;28;20393;-83
2022/01/15 01:58:56;;;;;;;0.32;0.20;;;5.60;99.90;;;;;;5055147;28;20091;-84
2022/01/15 02:01:21;;;;;;;0.25;0.20;;;6.10;99.90;;;;;;5047262;28;20175;-84
2022/01/15 02:03:47;;;;;;;0.20;0.20;;;5.60;99.90;;;;;;5034902;28;20121;-84
2022/01/15 02:06:15;;;;;;;0.43;0.20;;;5.60;99.90;;;;;;5035413;28;20124;-84
2022/01/15 02:08:42;;;;;;;0.25;0.20;;;5.60;99.90;;;;;;5034594;28;20125;-84
2022/01/15 02:11:08;;;;;;;0.38;0.28;;;5.60;99.90;;;;;;5034574;28;20073;-84
2022/01/15 02:13:38;;;;;;;0.43;0.30;;;5.60;99.90;;;;;;5034834;28;20057;-84
2022/01/15 02:16:04;;;;;;;0.30;0.28;;;6.50;99.90;;;;;;5021299;28;20045;-83
2022/01/15 02:18:30;;;;;;;0.60;0.30;;;5.70;99.90;;;;;;5054350;28;20049;-84
2022/01/15 02:23:44;;;;;;;0.45;0.32;;;5.80;99.90;;;;;;5054337;28;20059;-84
2022/01/15 02:26:16;;;;;;;0.60;0.30;;;5.90;99.90;;;;;;5036340;28;20196;-83
2022/01/15 02:28:46;;;;;;;0.55;0.30;;;5.50;99.90;;;;;;5042530;28;20049;-84
2022/01/15 02:31:14;;;;;;;0.40;0.35;;;5.70;99.90;;;;;;5034485;28;20132;-84
2022/01/15 02:33:42;;;;;;;0.32;0.22;;;5.50;99.90;;;;;;5034179;28;20056;-83
2022/01/15 02:36:11;;;;;;;0.15;0.15;;;5.50;99.90;;;;;;5048232;28;20041;-83
2022/01/15 02:38:37;;;;;;;0.20;0.20;;;5.40;99.90;;;;;;5052415;28;20099;-83
2022/01/15 02:41:03;;;;;;;0.20;0.20;;;5.40;99.90;;;;;;5053969;28;20053;-83
2022/01/15 02:43:32;;;;;;;0.30;0.20;;;5.70;99.90;;;;;;5036439;28;20234;-83
2022/01/15 02:46:17;;;;;;;0.40;0.22;;;5.40;99.90;;;;;;5045104;28;20379;-82
2022/01/15 02:48:44;;;;;;;0.30;0.20;;;5.40;99.90;;;;;;5035032;28;20045;-83
2022/01/15 02:51:11;;;;;;;0.10;0.10;;;5.40;99.90;;;;;;5033812;28;20049;-82
2022/01/15 02:53:37;;;;;;;0.17;0.17;;;5.40;99.90;;;;;;5033722;28;20517;-84
2022/01/15 02:56:03;;;;;;;0.30;0.20;;;5.30;99.90;;;;;;5016093;28;20046;-83
2022/01/15 02:58:29;;;;;;;0.10;0.10;;;5.30;99.90;;;;;;5034608;28;20524;-83
2022/01/15 03:00:54;;;;;;;0.10;0.10;;;5.30;99.90;;;;;;5043039;28;20069;-83
2022/01/15 03:03:21;;;;;;;0.20;0.20;;;5.30;99.90;;;;;;5053554;28;20053;-83
2022/01/15 03:05:46;;;;;;;0.30;0.30;;;5.60;99.90;;;;;;5053333;28;20072;-83
2022/01/15 03:08:13;;;;;;;0.20;0.20;;;5.60;99.90;;;;;;5053535;28;20469;-82
2022/01/15 03:10:39;;;;;;;0.20;0.20;;;5.60;99.90;;;;;;5033649;28;20120;-82
2022/01/15 03:13:13;;;;;;;0.40;0.30;;;5.70;99.90;;;;;;5035489;28;20136;-84
2022/01/15 03:15:39;;;;;;;0.57;0.10;;;5.20;99.90;;;;;;5052758;28;20053;-82
2022/01/15 03:18:05;;;;;;;0.20;0.17;;;5.20;99.90;;;;;;5051498;28;20056;-83
2022/01/15 03:20:32;;;;;;;0.10;0.10;;;5.20;99.90;;;;;;5038678;28;20552;-82
2022/01/15 03:22:58;;;;;;;0.35;0.20;;;5.20;99.90;;;;;;5034924;28;20041;-84
2022/01/15 03:25:23;;;;;;;0.38;0.20;;;5.20;99.90;;;;;;5033621;28;20049;-84
2022/01/15 03:27:49;;;;;;;0.30;0.20;;;5.70;99.90;;;;;;5016593;28;20102;-83
2022/01/15 03:30:15;;;;;;;0.20;0.20;;;5.20;99.90;;;;;;5033026;28;20445;-84
2022/01/15 03:32:44;;;;;;;0.35;0.20;;;5.90;99.90;;;;;;5032500;28;20565;-84
2022/01/15 03:35:16;;;;;;;0.10;0.10;;;5.70;99.90;;;;;;5015228;28;20052;-84
2022/01/15 03:37:42;;;;;;;0.10;0.10;;;5.40;99.90;;;;;;5019426;28;20044;-84
2022/01/15 03:40:11;;;;;;;0.10;0.10;;;5.70;99.90;;;;;;5035116;28;20040;-84
2022/01/15 03:42:36;;;;;;;0.20;0.20;;;5.20;99.90;;;;;;5035051;28;20060;-84
2022/01/15 03:45:03;;;;;;;0.30;0.20;;;5.50;99.90;;;;;;5035346;28;20512;-84
2022/01/15 03:47:29;;;;;;;0.10;0.10;;;5.20;99.90;;;;;;5052869;28;20421;-84
2022/01/15 03:49:54;;;;;;;0.30;0.30;;;5.30;99.90;;;;;;5050998;28;20048;-84
2022/01/15 03:52:20;;;;;;;0.40;0.30;;;5.70;99.90;;;;;;5052323;28;20080;-84
2022/01/15 03:54:46;;;;;;;0.60;0.30;;;5.20;99.90;;;;;;5034653;28;20130;-84
2022/01/15 03:57:12;;;;;;;0.30;0.20;;;5.30;99.90;;;;;;5052650;28;20049;-84
2022/01/15 03:59:37;;;;;;;0.20;0.20;;;5.20;99.90;;;;;;5050839;28;20036;-84
2022/01/15 04:02:03;;;;;;;0.57;0.28;;;5.60;99.90;;;;;;5052589;28;20041;-84
2022/01/15 04:04:29;;;;;;;0.40;0.30;;;5.20;99.90;;;;;;5052698;28;20424;-84
2022/01/15 04:06:55;;;;;;;0.40;0.30;;;5.20;99.90;;;;;;5052161;28;20095;-84
2022/01/15 04:09:20;;;;;;;0.47;0.30;;;5.20;99.90;;;;;;5051073;28;20048;-84
2022/01/15 04:11:46;;;;;;;0.55;0.30;;;5.70;99.90;;;;;;5052443;28;20043;-84
2022/01/15 04:14:12;;;;;;;0.38;0.20;;;5.30;99.90;;;;;;5052542;28;20105;-84
2022/01/15 04:16:39;;;;;;;0.43;0.28;;;5.80;99.90;;;;;;5052424;28;20060;-84
2022/01/15 04:19:07;;;;;;;0.57;0.40;;;5.10;99.90;;;;;;5034762;28;20136;-84
2022/01/15 04:21:35;;;;;;;0.57;0.40;;;5.00;99.90;;;;;;5047818;28;20509;-84
2022/01/15 04:24:00;;;;;;;0.68;0.30;;;6.30;99.90;;;;;;5032800;28;20076;-84
2022/01/15 04:26:27;;;;;;;0.77;0.30;;;5.00;99.90;;;;;;5038377;28;20559;-84
2022/01/15 04:28:54;;;;;;;0.60;0.35;;;5.20;99.90;;;;;;5034356;28;20401;-83
2022/01/15 04:31:20;;;;;;;0.30;0.25;;;5.00;99.90;;;;;;5034491;28;20052;-84
2022/01/15 04:33:46;;;;;;;0.43;0.30;;;5.60;99.90;;;;;;5052038;28;20048;-84
2022/01/15 04:36:12;;;;;;;1.02;0.40;;;4.90;99.90;;;;;;5052067;28;20072;-83
2022/01/15 04:38:40;;;;;;;0.45;0.40;;;5.50;99.90;;;;;;5050627;28;20044;-84
2022/01/15 04:41:07;;;;;;;0.50;0.30;;;5.10;99.90;;;;;;5052111;28;20041;-84
2022/01/15 04:43:33;;;;;;;0.57;0.30;;;5.00;99.90;;;;;;5037177;28;20053;-83
2022/01/15 04:46:00;;;;;;;0.52;0.30;;;5.20;99.90;;;;;;5056202;28;20045;-83
2022/01/15 04:48:26;;;;;;;0.57;0.30;;;5.20;99.90;;;;;;5036355;28;20041;-82
2022/01/15 04:50:52;;;;;;;0.60;0.30;;;6.00;99.90;;;;;;5056015;28;20045;-84
2022/01/15 04:53:18;;;;;;;0.85;0.40;;;4.80;99.90;;;;;;5056061;28;20132;-82
2022/01/15 04:55:43;;;;;;;0.50;0.30;;;5.00;99.90;;;;;;5055981;28;20053;-83
2022/01/15 04:58:10;;;;;;;0.50;0.30;;;5.80;99.90;;;;;;5055600;28;20045;-83
2022/01/15 05:00:36;;;;;;;0.70;0.40;;;5.80;99.90;;;;;;5044214;28;20056;-83
2022/01/15 05:03:02;;;;;;;0.65;0.30;;;5.10;99.90;;;;;;5035938;28;20045;-83
2022/01/15 05:05:29;;;;;;;0.77;0.40;;;5.60;99.90;;;;;;5036165;28;20045;-82
2022/01/15 05:07:55;;;;;;;0.52;0.30;;;5.00;99.90;;;;;;5036060;28;20072;-84
2022/01/15 05:10:26;;;;;;;0.40;0.20;;;5.10;99.90;;;;;;5036685;28;20050;-83
2022/01/15 05:12:54;;;;;;;0.25;0.15;;;5.10;99.90;;;;;;5018190;28;20516;-84
2022/01/15 05:15:20;;;;;;;0.38;0.15;;;5.60;99.90;;;;;;5046356;28;20048;-83
2022/01/15 05:17:47;;;;;;;0.20;0.20;;;5.70;99.90;;;;;;5055337;28;20379;-84
2022/01/15 05:20:17;;;;;;;0.32;0.20;;;5.00;99.90;;;;;;5053795;28;20041;-84
2022/01/15 05:22:43;;;;;;;0.60;0.30;;;5.70;99.90;;;;;;5055437;28;20049;-84
2022/01/15 05:25:13;;;;;;;0.40;0.20;;;5.00;99.90;;;;;;5055668;28;20055;-83
2022/01/15 05:27:40;;;;;;;0.43;0.22;;;5.00;99.90;;;;;;5055111;28;20085;-84
2022/01/15 05:30:07;;;;;;;0.47;0.30;;;5.40;99.90;;;;;;5026699;28;20048;-83
2022/01/15 05:32:33;;;;;;;0.75;0.30;;;5.00;99.90;;;;;;5053814;28;20485;-83
2022/01/15 05:35:00;;;;;;;0.40;0.20;;;5.30;99.90;;;;;;5055045;28;20053;-84
2022/01/15 05:37:26;;;;;;;0.50;0.30;;;5.00;99.90;;;;;;5055239;28;20045;-84
2022/01/15 05:39:51;;;;;;;0.63;0.32;;;5.30;99.90;;;;;;5055374;28;20048;-84
2022/01/15 05:42:17;;;;;;;1.13;0.40;;;6.50;99.90;;;;;;5053125;28;20060;-84
2022/01/15 05:44:43;;;;;;;1.08;0.40;;;5.90;99.90;;;;;;5054943;28;20052;-83
2022/01/15 05:47:09;;;;;;;0.98;0.30;;;5.60;99.90;;;;;;5055036;28;20041;-84
2022/01/15 05:49:35;;;;;;;1.13;0.40;;;5.80;99.90;;;;;;5054510;28;20081;-84
2022/01/15 05:52:01;;;;;;;1.00;0.52;;;5.70;99.90;;;;;;5053539;28;20042;-84
2022/01/15 05:54:27;;;;;;;1.10;0.45;;;5.10;99.90;;;;;;5053761;28;20513;-84
2022/01/15 05:56:52;;;;;;;0.57;0.30;;;5.10;99.90;;;;;;5054390;28;20041;-84
2022/01/15 05:59:18;;;;;;;1.15;0.40;;;5.10;99.90;;;;;;5054670;28;20041;-84
2022/01/15 06:01:44;;;;;;;0.75;0.40;;;5.10;99.90;;;;;;5054781;28;20490;-84
2022/01/15 06:04:09;;;;;;;0.82;0.30;;;5.20;99.90;;;;;;5052923;28;20045;-84
2022/01/15 06:06:35;;;;;;;0.68;0.25;;;5.10;99.90;;;;;;5054616;28;20037;-83
2022/01/15 06:09:02;;;;;;;0.40;0.30;;;5.40;99.90;;;;;;5054141;28;20056;-84
2022/01/15 06:11:28;;;;;;;0.35;0.20;;;5.40;99.90;;;;;;5054859;28;20142;-84
2022/01/15 06:13:55;;;;;;;0.50;0.30;;;5.10;99.90;;;;;;5052824;28;20065;-84
2022/01/15 06:16:22;;;;;;;0.73;0.30;;;5.90;99.90;;;;;;5054312;28;20041;-84
2022/01/15 06:18:48;;;;;;;0.50;0.20;;;5.20;99.90;;;;;;5054452;28;20404;-84
2022/01/15 06:21:14;;;;;;;0.35;0.20;;;5.10;99.90;;;;;;5054333;28;20132;-84
2022/01/15 06:23:40;;;;;;;0.95;0.40;;;5.80;99.90;;;;;;5052476;28;20065;-84
2022/01/15 06:26:06;;;;;;;0.43;0.32;;;5.40;99.90;;;;;;5054323;28;20091;-83
2022/01/15 06:28:31;;;;;;;0.70;0.40;;;5.10;99.90;;;;;;5036485;28;20041;-82
2022/01/15 06:30:57;;;;;;;0.32;0.28;;;5.20;99.90;;;;;;5054325;28;20033;-84
2022/01/15 06:33:22;;;;;;;0.70;0.30;;;5.10;99.90;;;;;;5054305;28;20041;-83
2022/01/15 06:35:48;;;;;;;1.13;0.30;;;5.80;99.90;;;;;;5052269;28;20128;-83
2022/01/15 06:38:14;;;;;;;1.27;0.40;;;5.60;99.90;;;;;;5039064;28;20397;-83
2022/01/15 06:40:39;;;;;;;0.95;0.40;;;5.00;99.90;;;;;;5017862;28;20465;-83
2022/01/15 06:43:08;;;;;;;0.73;0.38;;;5.40;99.90;;;;;;5054141;28;20080;-83
2022/01/15 06:45:34;;;;;;;0.68;0.30;;;5.50;99.90;;;;;;5052261;28;20048;-84
2022/01/15 06:48:00;;;;;;;0.82;0.30;;;5.60;99.90;;;;;;5053914;28;20498;-83
2022/01/15 06:50:28;;;;;;;0.77;0.38;;;5.50;99.90;;;;;;5053791;28;20044;-83
2022/01/15 06:52:54;;;;;;;0.52;0.30;;;5.20;99.90;;;;;;5053979;28;20123;-84
2022/01/15 06:55:20;;;;;;;0.95;0.30;;;5.60;99.90;;;;;;5052467;28;20076;-83
2022/01/15 06:57:47;;;;;;;0.90;0.40;;;5.20;99.90;;;;;;5034509;28;20041;-82
2022/01/15 07:00:14;;;;;;;1.17;0.40;;;5.90;99.90;;;;;;5033870;28;20387;-84
2022/01/15 07:02:40;;;;;;;1.38;0.50;;;5.20;99.90;;;;;;5033554;28;20057;-84
2022/01/15 07:05:07;;;;;;;0.80;0.40;;;5.00;99.90;;;;;;5033409;28;20132;-83
2022/01/15 07:07:34;;;;;;;0.90;0.45;;;5.20;99.90;;;;;;5017004;28;20108;-83
2022/01/15 07:10:00;;;;;;;1.42;0.70;;;5.20;99.90;;;;;;5035286;28;20085;-83
2022/01/15 07:12:25;;;;;;;1.60;0.50;;;5.20;99.90;;;;;;5033556;28;20076;-85
2022/01/15 07:14:51;;;;;;;1.83;0.68;;;5.20;99.90;;;;;;5039094;28;20094;-84
2022/01/15 07:17:17;;;;;;;0.65;0.40;;;5.20;99.90;;;;;;5053153;28;20076;-85
2022/01/15 07:19:43;;;;;;;1.10;0.50;;;5.30;99.90;;;;;;5053054;28;20041;-83
2022/01/15 07:22:09;;;;;;;1.58;0.60;;;5.20;99.90;;;;;;5053186;28;20066;-84
2022/01/15 07:24:34;;;;;;;1.55;0.70;;;5.30;99.90;;;;;;5051438;28;20049;-84
2022/01/15 07:27:01;;;;;;;1.17;0.52;;;5.70;99.90;;;;;;5053115;28;20440;-84
2022/01/15 07:29:29;;;;;;;2.50;0.80;;;5.50;99.90;;;;;;5049875;28;20155;-85
2022/01/15 07:31:55;;;;;;;0.80;0.47;;;6.00;99.90;;;;;;5015232;28;20056;-83
2022/01/15 07:34:21;;;;;;;1.25;0.50;;;5.20;99.90;;;;;;5034045;28;20033;-84
2022/01/15 07:36:52;;;;;;;1.55;0.60;;;5.20;99.90;;;;;;5032982;28;20081;-84
2022/01/15 07:39:18;;;;;;;0.70;0.22;;;5.60;99.90;;;;;;5032970;28;20049;-83
2022/01/15 07:41:44;;;;;;;1.27;0.40;;;5.20;99.90;;;;;;5033035;28;20104;-82
2022/01/15 07:44:09;;;;;;;1.38;0.70;;;5.20;99.90;;;;;;5036544;28;20132;-83
2022/01/15 07:46:36;;;;;;;1.02;0.50;;;5.20;99.90;;;;;;5051188;28;20041;-83
2022/01/15 07:49:02;;;;;;;1.33;0.60;;;5.20;99.90;;;;;;5034496;28;20053;-80
2022/01/15 07:51:28;;;;;;;0.88;0.30;;;5.20;99.90;;;;;;5052679;28;20094;-83
2022/01/15 07:53:53;;;;;;;1.70;0.38;;;5.20;99.90;;;;;;5052909;28;20052;-83
2022/01/15 07:56:19;;;;;;;0.98;0.40;;;5.20;99.90;;;;;;5050987;28;20037;-83
2022/01/15 07:58:45;;;;;;;1.13;0.38;;;5.20;99.90;;;;;;5052913;28;20592;-83
2022/01/15 08:01:11;;;;;;;1.45;0.47;;;5.50;99.90;;;;;;5051203;28;20041;-83
2022/01/15 08:03:36;;;;;;;1.15;0.40;;;5.20;99.90;;;;;;5032837;28;20406;-85
2022/01/15 08:06:02;;;;;;;1.27;0.57;;;5.20;99.90;;;;;;5034189;28;20648;-82
2022/01/15 08:08:28;;;;;;;1.15;0.50;;;5.20;99.90;;;;;;5052683;28;20633;-85
2022/01/15 08:10:53;;;;;;;1.48;0.40;;;5.20;99.90;;;;;;5034932;28;20386;-84
2022/01/15 08:13:19;;;;;;;1.23;0.50;;;5.20;99.90;;;;;;5034778;28;20044;-84
2022/01/15 08:15:45;;;;;;;1.13;0.50;;;5.20;99.90;;;;;;5035001;28;20049;-84
2022/01/15 08:18:11;;;;;;;0.90;0.50;;;5.20;99.90;;;;;;5037113;28;20502;-83
2022/01/15 08:20:37;;;;;;;1.70;0.60;;;4.90;99.90;;;;;;5036961;28;20559;-83
2022/01/15 08:23:03;;;;;;;0.70;0.50;;;5.70;99.90;;;;;;5048995;28;20040;-81
2022/01/15 08:25:29;;;;;;;1.50;0.70;;;4.30;99.90;;;;;;5041092;28;20469;-82
2022/01/15 08:27:55;;;;;;;0.85;0.50;;;5.30;99.90;;;;;;5037909;28;20069;-83
2022/01/15 08:30:22;;;;;;;2.55;0.57;;;5.20;99.90;;;;;;5034675;28;20068;-82
2022/01/15 08:32:48;;;;;;;2.33;0.70;;;6.10;99.90;;;;;;5018869;28;20049;-82
2022/01/15 08:35:13;;;;;;;1.10;0.60;;;5.70;99.90;;;;;;5041693;28;20034;-81
2022/01/15 08:37:40;;;;;;;1.40;0.65;;;5.30;99.90;;;;;;5055283;28;20049;-83
2022/01/15 08:40:08;;;;;;;2.40;0.70;;;4.60;99.90;;;;;;5055604;28;20049;-82
2022/01/15 08:42:35;;;;;;;1.65;0.68;;;5.30;99.90;;;;;;5038040;28;20056;-83
2022/01/15 08:45:03;;;;;;;1.00;0.52;;;5.30;99.90;;;;;;5038124;28;20079;-85
2022/01/15 08:47:29;;;;;;;0.75;0.45;;;5.90;99.90;;;;;;5019615;28;20052;-87
2022/01/15 08:49:55;;;;;;;1.05;0.60;;;5.40;99.90;;;;;;5020527;28;20405;-86
2022/01/15 08:52:22;;;;;;;1.00;0.60;;;6.20;99.90;;;;;;5036123;28;20048;-87
2022/01/15 08:54:48;;;;;;;1.45;0.60;;;5.50;99.90;;;;;;5036457;28;20394;-88
2022/01/15 08:57:14;;;;;;;0.90;0.43;;;4.90;99.90;;;;;;5037529;28;20034;-83
2022/01/15 08:59:39;;;;;;;1.17;0.50;;;5.90;99.90;;;;;;5037111;28;20051;-83
2022/01/15 09:02:05;;;;;;;2.08;0.60;;;5.40;99.90;;;;;;5035971;28;20136;-84
2022/01/15 09:04:31;;;;;;;1.38;0.60;;;5.40;99.90;;;;;;5035947;28;20033;-83
2022/01/15 09:06:57;;;;;;;1.08;0.50;;;6.00;99.90;;;;;;5037179;28;20446;-82
2022/01/15 09:09:23;;;;;;;1.25;0.60;;;6.00;99.90;;;;;;5036055;28;20136;-83
2022/01/15 09:11:49;;;;;;;1.88;0.80;;;5.60;99.90;;;;;;5018702;28;20037;-83
2022/01/15 09:14:14;;;;;;;1.13;0.50;;;5.40;99.90;;;;;;5046512;28;20133;-83
2022/01/15 09:16:40;;;;;;;1.50;0.60;;;5.40;99.90;;;;;;5055336;28;20478;-84
2022/01/15 09:19:06;;;;;;;1.02;0.57;;;5.50;99.90;;;;;;5021031;28;20061;-87
2022/01/15 09:21:32;;;;;;;1.20;0.50;;;5.50;99.90;;;;;;5048450;28;20040;-83
2022/01/15 09:23:58;;;;;;;1.17;0.40;;;5.60;99.90;;;;;;5053795;28;20040;-83
2022/01/15 09:26:46;;;;;;;1.75;0.60;;;6.00;99.90;;;;;;5055583;28;20041;-85
2022/01/15 09:31:55;;;;;;;0.75;0.47;;;5.40;99.90;;;;;;5035970;28;20494;-84
2022/01/15 09:34:20;;;;;;;1.40;0.50;;;5.80;99.90;;;;;;5037743;28;20038;-84
2022/01/15 09:36:46;;;;;;;0.60;0.32;;;5.30;99.90;;;;;;5037057;28;20397;-85
2022/01/15 09:39:12;;;;;;;2.08;0.50;;;5.90;99.90;;;;;;5055297;28;20131;-85
2022/01/15 09:41:43;;;;;;;1.33;0.60;;;5.50;99.90;;;;;;5053915;28;20397;-86
2022/01/15 09:44:09;;;;;;;1.05;0.60;;;5.00;99.90;;;;;;5037144;28;20496;-87
2022/01/15 09:46:36;;;;;;;1.60;0.65;;;5.90;99.90;;;;;;5034706;28;20045;-84
2022/01/15 09:49:02;;;;;;;0.93;0.40;;;5.50;99.90;;;;;;5037020;28;20094;-85
2022/01/15 09:51:29;;;;;;;0.95;0.60;;;5.90;99.90;;;;;;5055215;28;20145;-86
2022/01/15 09:53:56;;;;;;;1.73;0.50;;;6.20;99.90;;;;;;5051246;28;20049;-83
2022/01/15 09:56:22;;;;;;;2.20;0.60;;;5.60;99.90;;;;;;5028332;28;20457;-87
2022/01/15 09:58:48;;;;;;;2.15;0.70;;;5.60;99.90;;;;;;5034765;28;20046;-82
2022/01/15 10:01:14;;;;;;;1.45;0.60;;;5.60;99.90;;;;;;5036550;28;20458;-85
2022/01/15 10:03:39;;;;;;;1.38;0.60;;;5.60;99.90;;;;;;5035201;28;20045;-86
2022/01/15 10:06:05;;;;;;;1.42;0.50;;;5.50;99.90;;;;;;5018031;28;20196;-83
2022/01/15 10:08:31;;;;;;;1.58;0.70;;;5.60;99.90;;;;;;5018130;28;20528;-84
2022/01/15 10:10:59;;;;;;;1.15;0.50;;;6.10;99.90;;;;;;5037952;28;20049;-82
2022/01/15 10:13:28;;;;;;;1.73;0.70;;;5.60;99.90;;;;;;5048459;28;20103;-80
2022/01/15 10:15:59;;;;;;;2.08;0.80;;;5.60;99.90;;;;;;5054740;28;20086;-80
2022/01/15 10:18:30;;;;;;;1.13;0.60;;;6.20;99.90;;;;;;5052313;28;20053;-81
2022/01/15 10:21:13;;;;;;;2.58;1.00;;;5.70;99.90;;;;;;5037367;28;20473;-82
2022/01/15 10:23:56;;;;;;;1.90;0.85;;;5.70;99.90;;;;;;5054751;28;20099;-80
2022/01/15 10:26:24;;;;;;;2.17;0.95;;;5.70;99.90;;;;;;5036596;28;20057;-81
2022/01/15 10:28:50;;;;;;;2.78;1.05;;;6.10;99.90;;;;;;5039773;28;20061;-81
2022/01/15 10:31:21;;;;;;;2.70;1.02;;;5.70;99.90;;;;;;5035572;28;20046;-82
2022/01/15 10:33:50;;;;;;;3.15;1.10;;;5.70;99.90;;;;;;5027161;28;20041;-80
2022/01/15 10:36:25;;;;;;;3.13;1.30;;;5.90;99.90;;;;;;5053990;28;20091;-80
2022/01/15 10:38:52;;;;;;;2.55;1.25;;;5.80;99.90;;;;;;5052361;28;20045;-81
2022/01/15 10:41:35;;;;;;;4.35;1.92;;;5.80;99.90;;;;;;5053159;28;20051;-82
2022/01/15 10:44:22;;;;;;;4.00;1.42;;;6.00;99.90;;;;;;5054084;28;20394;-81
2022/01/15 10:46:48;;;;;;;3.15;1.27;;;5.80;99.90;;;;;;5053776;28;20045;-80
2022/01/15 10:49:26;;;;;;;4.25;1.73;;;5.80;99.90;;;;;;5046158;28;20106;-87
2022/01/15 10:52:25;;;;;;;5.75;2.10;;;6.20;99.90;;;;;;5054068;28;20098;-80
2022/01/15 10:55:02;;;;;;;4.40;1.77;;;5.80;99.90;;;;;;5011985;28;20050;-81
2022/01/15 10:57:43;;;;;;;4.72;2.00;;;5.80;99.90;;;;;;4995517;28;20064;-80
2022/01/15 11:00:38;;;;;;;5.18;2.20;;;5.80;99.90;;;;;;5003527;28;20046;-82
2022/01/15 11:03:07;;;;;;;9.40;3.80;;;5.80;99.90;;;;;;4992364;28;20495;-80
2022/01/15 11:05:41;;;;;;;8.27;3.63;;;6.00;99.90;;;;;;5011292;28;20127;-81
2022/01/15 11:08:26;;;;;;;6.70;2.80;;;6.50;99.90;;;;;;5011559;28;20621;-81
2022/01/15 11:11:08;;;;;;;6.55;2.55;;;5.80;99.90;;;;;;5009981;28;20057;-80
2022/01/15 11:13:41;;;;;;;7.72;3.35;;;5.80;99.90;;;;;;5011652;28;20139;-86
2022/01/15 11:16:12;;;;;;;8.30;3.70;;;5.80;99.90;;;;;;5011734;28;20084;-86
2022/01/15 11:18:40;;;;;;;10.02;3.67;;;6.20;99.90;;;;;;4991259;28;20050;-86
2022/01/15 11:21:18;;;;;;;6.38;3.05;;;6.10;99.90;;;;;;4997509;28;20120;-86
2022/01/15 11:23:45;;;;;;;10.05;4.50;;;6.50;99.90;;;;;;5011546;28;20095;-86
2022/01/15 11:26:24;;;;;;;6.55;3.00;;;5.90;99.90;;;;;;5011519;28;20049;-86
2022/01/15 11:28:53;;;;;;;6.80;3.03;;;5.90;99.90;;;;;;5011382;28;20049;-86
2022/01/15 11:31:30;;;;;;;7.05;3.63;;;5.80;99.90;;;;;;5046139;28;20053;-86
2022/01/15 11:34:00;;;;;;;6.13;2.33;;;5.90;99.90;;;;;;5034433;28;20106;-85
2022/01/15 11:36:35;;;;;;;6.70;2.58;;;5.90;99.90;;;;;;5026324;28;20037;-86
2022/01/15 11:39:03;;;;;;;5.75;2.53;;;5.90;99.90;;;;;;5033070;28;20132;-86
2022/01/15 11:41:29;;;;;;;7.20;2.97;;;5.90;99.90;;;;;;5033068;28;20133;-85
2022/01/15 11:43:58;;;;;;;7.93;3.15;;;6.50;99.90;;;;;;5019107;28;20114;-86
2022/01/15 11:46:40;;;;;;;10.35;4.30;;;5.90;99.90;;;;;;5052908;28;20047;-87
2022/01/15 11:49:35;;;;;;;7.15;3.08;;;5.90;99.90;;;;;;5052696;28;20049;-86
2022/01/15 11:52:08;;;;;;;6.78;3.20;;;6.10;99.90;;;;;;4970756;28;20384;-86
2022/01/15 11:54:38;;;;;;;7.70;3.53;;;6.10;99.90;;;;;;4971779;28;20046;-84
2022/01/15 11:57:18;;;;;;;8.48;4.32;;;5.90;99.90;;;;;;4955646;28;20555;-86
2022/01/15 11:59:49;;;;;;;6.43;2.83;;;6.10;99.90;;;;;;4972002;28;20105;-85
2022/01/15 12:02:28;;;;;;;8.05;3.40;;;6.30;99.90;;;;;;4971883;28;20093;-86
2022/01/15 12:04:54;;;;;;;8.50;3.40;;;5.80;99.90;;;;;;4971649;28;20046;-85
2022/01/15 12:07:22;;;;;;;7.40;3.60;;;5.80;99.90;;;;;;4972024;28;20043;-86
2022/01/15 12:09:52;;;;;;;7.97;3.38;;;6.10;99.90;;;;;;4971572;28;20125;-86
2022/01/15 12:12:18;;;;;;;5.60;2.42;;;6.50;99.90;;;;;;4955745;28;20109;-87
2022/01/15 12:14:47;;;;;;;6.53;2.70;;;6.20;99.90;;;;;;4971244;28;20051;-86
2022/01/15 12:17:44;;;;;;;6.78;2.85;;;6.10;99.90;;;;;;4971637;28;20554;-82
2022/01/15 12:20:20;;;;;;;6.68;2.75;;;6.40;99.90;;;;;;4936228;28;20059;-86
2022/01/15 12:22:45;;;;;;;;;;;6.40;99.90;;;;;;4937063;28;20043;-86
2022/01/15 12:25:30;;;;;;;6.93;3.25;;;5.90;99.90;;;;;;4936612;29;20037;-92
2022/01/15 12:28:09;;;;;;;7.90;3.83;;;5.80;99.90;;;;;;4926888;28;20055;-85
2022/01/15 12:30:44;;;;;;;9.35;4.35;;;5.80;99.90;;;;;;4955910;28;20074;-89
2022/01/15 12:33:13;;;;;;;8.60;4.10;;;6.00;99.90;;;;;;4972260;28;20053;-86
2022/01/15 12:35:41;;;;;;;6.32;2.80;;;6.00;99.90;;;;;;4969869;28;20469;-87
2022/01/15 12:38:09;;;;;;;6.93;3.55;;;5.80;99.90;;;;;;4970791;28;20059;-87
2022/01/15 12:40:41;;;;;;;8.52;3.67;;;5.80;99.90;;;;;;4955760;28;20428;-86
2022/01/15 12:43:28;;;;;;;7.38;3.47;;;5.80;99.90;;;;;;4967909;28;20051;-85
2022/01/15 12:45:59;;;;;;;8.00;3.63;;;5.70;99.90;;;;;;4953158;28;20057;-87
2022/01/15 12:48:27;;;;;;;7.95;3.60;;;5.70;99.90;;;;;;4952129;28;20456;-85
2022/01/15 12:50:58;;;;;;;8.13;3.85;;;5.70;99.90;;;;;;4952283;28;20532;-86
2022/01/15 12:53:29;;;;;;;8.10;3.90;;;5.70;99.90;;;;;;4952225;28;20110;-85
2022/01/15 12:55:55;;;;;;;8.13;3.47;;;5.70;99.90;;;;;;4972788;28;20516;-86
2022/01/15 12:58:26;;;;;;;6.60;4.15;;;5.70;99.90;;;;;;5033283;28;20546;-86
2022/01/15 13:00:53;;;;;;;7.70;3.85;;;6.40;99.90;;;;;;5044084;28;20187;-85
2022/01/15 13:03:25;;;;;;;8.15;3.63;;;5.70;99.90;;;;;;5033081;28;20079;-83
2022/01/15 13:05:57;;;;;;;8.52;4.38;;;5.60;99.90;;;;;;5036052;28;20390;-86
2022/01/15 13:08:33;;;;;;;7.63;3.70;;;5.60;99.90;;;;;;5035777;28;20049;-84
2022/01/15 13:11:33;;;;;;;8.32;4.80;;;5.60;99.90;;;;;;5036170;28;20124;-85
2022/01/15 13:13:54;;;;;;;8.45;4.32;;;5.50;99.90;;;;;;5051594;28;20056;-85
2022/01/15 13:16:26;;;;;;;8.38;4.47;;;5.50;99.90;;;;;;5038002;28;20057;-88
2022/01/15 13:18:58;;;;;;;10.68;5.20;;;5.80;99.90;;;;;;5054909;28;20494;-84